Time;durP1;ratioP1;P1;durP2;ratioP2;P2;SDS_P1;SDS_P2;PMS_P1;PMS_P2;Temp;Humidity;BMP_temperature;BMP_pressure;BME280_temperature;BME280_humidity;BME280_pressure;Samples;Min_cycle;Max_cycle;Signal;HPM_P1;HPM_P2
2023/01/23 00:01:17;;;;;;;17.55;12.27;;;2.20;99.90;;;;;;5004419;28;20046;-79
2023/01/23 00:03:43;;;;;;;17.27;11.98;;;2.20;99.90;;;;;;5004622;28;20121;-79
2023/01/23 00:06:12;;;;;;;18.17;11.85;;;2.20;99.90;;;;;;4984670;28;20171;-79
2023/01/23 00:08:39;;;;;;;15.43;11.00;;;2.20;99.90;;;;;;5001993;28;20104;-79
2023/01/23 00:11:06;;;;;;;19.52;12.45;;;2.20;99.90;;;;;;5006897;28;20060;-79
2023/01/23 00:13:33;;;;;;;18.73;12.77;;;2.20;99.90;;;;;;5005700;28;20192;-78
2023/01/23 00:16:02;;;;;;;18.27;12.68;;;2.20;99.90;;;;;;5005326;28;20128;-79
2023/01/23 00:18:27;;;;;;;18.13;11.90;;;2.20;99.90;;;;;;5009550;28;20037;-79
2023/01/23 00:20:53;;;;;;;24.15;12.82;;;2.20;99.90;;;;;;5006215;28;20049;-79
2023/01/23 00:23:18;;;;;;;18.90;12.18;;;2.20;99.90;;;;;;4986358;28;20058;-78
2023/01/23 00:25:44;;;;;;;20.95;12.57;;;2.20;99.90;;;;;;5002324;28;20400;-78
2023/01/23 00:28:10;;;;;;;17.25;13.02;;;2.20;99.90;;;;;;5004381;28;20237;-78
2023/01/23 00:30:35;;;;;;;17.77;12.32;;;2.20;99.90;;;;;;4987607;28;20044;-78
2023/01/23 00:33:01;;;;;;;21.75;13.32;;;2.20;99.90;;;;;;5007695;28;20140;-78
2023/01/23 00:35:26;;;;;;;16.65;11.02;;;2.20;99.90;;;;;;5015486;28;21781;-79
2023/01/23 00:37:52;;;;;;;19.13;11.88;;;2.20;99.90;;;;;;5012741;28;20121;-79
2023/01/23 00:40:18;;;;;;;18.38;12.13;;;2.20;99.90;;;;;;5002136;28;20046;-79
2023/01/23 00:42:43;;;;;;;16.42;12.02;;;2.20;99.90;;;;;;5010370;28;20062;-79
2023/01/23 00:45:09;;;;;;;19.65;11.30;;;2.20;99.90;;;;;;4990303;28;20073;-79
2023/01/23 00:47:35;;;;;;;21.27;11.70;;;2.20;99.90;;;;;;5017361;28;20131;-79
2023/01/23 00:50:00;;;;;;;17.70;11.27;;;2.20;99.90;;;;;;5017188;28;20477;-79
2023/01/23 00:52:26;;;;;;;18.58;12.30;;;2.20;99.90;;;;;;5007558;28;20042;-79
2023/01/23 00:54:52;;;;;;;19.05;10.63;;;2.20;99.90;;;;;;5007839;28;20393;-79
2023/01/23 00:57:18;;;;;;;17.77;11.23;;;2.20;99.90;;;;;;5000938;28;20045;-79
2023/01/23 00:59:43;;;;;;;18.25;11.52;;;2.20;99.90;;;;;;4985666;28;20125;-79
2023/01/23 01:02:09;;;;;;;18.25;12.38;;;2.20;99.90;;;;;;5004562;28;20077;-80
2023/01/23 01:04:35;;;;;;;15.63;11.57;;;2.20;99.90;;;;;;5005453;28;20038;-80
2023/01/23 01:07:00;;;;;;;17.10;9.90;;;2.20;99.90;;;;;;5005404;28;20038;-81
2023/01/23 01:09:26;;;;;;;18.63;12.43;;;2.20;99.90;;;;;;5009070;28;20046;-81
2023/01/23 01:11:52;;;;;;;19.88;11.38;;;2.20;99.90;;;;;;5006643;28;20179;-81
2023/01/23 01:14:17;;;;;;;18.90;11.43;;;2.20;99.90;;;;;;5002586;28;20622;-80
2023/01/23 01:16:45;;;;;;;19.45;11.20;;;2.20;99.90;;;;;;5003355;28;20073;-79
2023/01/23 01:19:15;;;;;;;17.00;9.93;;;2.20;99.90;;;;;;5000237;28;20132;-80
2023/01/23 01:21:41;;;;;;;20.90;11.02;;;2.20;99.90;;;;;;5008868;28;20452;-79
2023/01/23 01:24:08;;;;;;;17.15;10.73;;;2.30;99.90;;;;;;4985245;28;20038;-80
2023/01/23 01:26:33;;;;;;;18.75;11.40;;;2.30;99.90;;;;;;4990269;28;20041;-80
2023/01/23 01:28:59;;;;;;;20.13;12.02;;;2.30;99.90;;;;;;4986267;28;20429;-80
2023/01/23 01:31:25;;;;;;;10.57;7.45;;;2.30;99.90;;;;;;5010542;28;20046;-79
2023/01/23 01:33:50;;;;;;;21.23;11.82;;;2.30;99.90;;;;;;5011605;28;20045;-81
2023/01/23 01:36:18;;;;;;;16.70;11.63;;;2.30;99.90;;;;;;5011537;28;20048;-80
2023/01/23 01:38:44;;;;;;;18.80;11.15;;;2.30;99.90;;;;;;5016755;28;20045;-80
2023/01/23 01:41:11;;;;;;;16.60;11.57;;;2.30;99.90;;;;;;5023029;28;20038;-81
2023/01/23 01:43:37;;;;;;;14.48;9.63;;;2.30;99.90;;;;;;5022281;28;20037;-80
2023/01/23 01:46:20;;;;;;;19.08;10.45;;;2.30;99.90;;;;;;5020667;28;20064;-80
2023/01/23 01:49:09;;;;;;;18.65;10.55;;;2.30;99.90;;;;;;5020262;28;20038;-80
2023/01/23 01:51:49;;;;;;;18.90;11.00;;;2.30;99.90;;;;;;4998625;28;20077;-80
2023/01/23 01:54:32;;;;;;;20.02;11.98;;;2.30;99.90;;;;;;5018489;28;20042;-80
2023/01/23 01:57:21;;;;;;;17.23;11.10;;;2.40;99.90;;;;;;5016834;28;20500;-80
2023/01/23 02:00:06;;;;;;;19.42;12.48;;;2.30;99.90;;;;;;5009859;28;20041;-80
2023/01/23 02:02:37;;;;;;;16.90;11.02;;;2.30;99.90;;;;;;4985332;28;20080;-80
2023/01/23 02:05:12;;;;;;;20.30;11.70;;;2.40;99.90;;;;;;4978153;28;20424;-80
2023/01/23 02:07:57;;;;;;;20.13;12.27;;;2.30;99.90;;;;;;5000191;28;20050;-80
2023/01/23 02:10:23;;;;;;;18.40;12.48;;;2.30;99.90;;;;;;5002894;28;20033;-80
2023/01/23 02:12:50;;;;;;;22.77;11.65;;;2.30;99.90;;;;;;5004255;28;20477;-80
2023/01/23 02:15:18;;;;;;;20.30;12.95;;;2.30;99.90;;;;;;5002492;28;20034;-80
2023/01/23 02:17:46;;;;;;;20.73;13.10;;;2.40;99.90;;;;;;5000617;28;20563;-80
2023/01/23 02:20:25;;;;;;;15.65;11.20;;;2.40;99.90;;;;;;5002852;28;20053;-80
2023/01/23 02:23:04;;;;;;;19.48;12.23;;;2.30;99.90;;;;;;5003721;28;20049;-80
2023/01/23 02:25:41;;;;;;;22.00;12.32;;;2.30;99.90;;;;;;5003336;28;20048;-81
2023/01/23 02:28:08;;;;;;;19.05;13.05;;;2.30;99.90;;;;;;5001709;28;20081;-81
2023/01/23 02:30:35;;;;;;;19.13;12.40;;;2.30;99.90;;;;;;5013678;28;20410;-80
2023/01/23 02:33:30;;;;;;;15.95;12.55;;;2.30;99.90;;;;;;5015787;28;20065;-80
2023/01/23 02:35:59;;;;;;;18.70;12.55;;;2.40;99.90;;;;;;5030452;28;20045;-80
2023/01/23 02:38:30;;;;;;;16.25;12.30;;;2.40;99.90;;;;;;5033066;28;20048;-80
2023/01/23 02:40:59;;;;;;;20.92;12.43;;;2.30;99.90;;;;;;5032241;28;20049;-80
2023/01/23 02:43:33;;;;;;;18.92;12.90;;;2.40;99.90;;;;;;5010839;28;20100;-80
2023/01/23 02:46:01;;;;;;;20.45;12.75;;;2.40;99.90;;;;;;5013703;28;20053;-80
2023/01/23 02:48:27;;;;;;;21.77;13.38;;;2.40;99.90;;;;;;5027023;28;20104;-80
2023/01/23 02:50:53;;;;;;;21.40;13.68;;;2.40;99.90;;;;;;5021043;28;20041;-80
2023/01/23 02:53:18;;;;;;;21.70;13.60;;;2.40;99.90;;;;;;4999560;28;20050;-80
2023/01/23 02:55:44;;;;;;;21.67;13.02;;;2.40;99.90;;;;;;5019615;28;20054;-80
2023/01/23 03:00:54;;;;;;;21.08;12.82;;;2.40;99.90;;;;;;5022844;28;20034;-80
2023/01/23 03:03:20;;;;;;;19.98;12.88;;;2.40;99.90;;;;;;5013214;28;20044;-80
2023/01/23 03:05:46;;;;;;;15.90;12.82;;;2.40;99.90;;;;;;5012578;28;20069;-80
2023/01/23 03:08:12;;;;;;;20.33;13.27;;;2.50;99.90;;;;;;5015549;28;20112;-80
2023/01/23 03:10:37;;;;;;;21.88;12.88;;;2.50;99.90;;;;;;4994734;28;20157;-80
2023/01/23 03:13:06;;;;;;;23.48;13.25;;;2.50;99.90;;;;;;4989963;28;20543;-80
2023/01/23 03:15:33;;;;;;;20.70;13.20;;;2.40;99.90;;;;;;5012785;28;20038;-80
2023/01/23 03:17:59;;;;;;;22.20;13.38;;;2.50;99.90;;;;;;4994332;28;20160;-80
2023/01/23 03:20:25;;;;;;;17.50;13.25;;;2.50;99.90;;;;;;4990670;28;20056;-80
2023/01/23 03:22:52;;;;;;;19.15;13.70;;;2.50;99.90;;;;;;5008820;28;20053;-79
2023/01/23 03:25:17;;;;;;;20.75;14.27;;;2.50;99.90;;;;;;5008367;28;20041;-78
2023/01/23 03:27:43;;;;;;;17.60;12.18;;;2.50;99.90;;;;;;5004522;28;20045;-79
2023/01/23 03:30:20;;;;;;;20.92;13.82;;;2.50;99.90;;;;;;4984753;28;21709;-78
2023/01/23 03:32:46;;;;;;;21.30;13.07;;;2.50;99.90;;;;;;5006510;28;20369;-79
2023/01/23 03:35:15;;;;;;;19.85;13.13;;;2.50;99.90;;;;;;5008291;28;20042;-78
2023/01/23 03:37:42;;;;;;;24.13;14.23;;;2.50;99.90;;;;;;5006043;28;20722;-78
2023/01/23 03:43:03;;;;;;;17.45;11.00;;;2.50;99.90;;;;;;5007904;28;21298;-78
2023/01/23 03:45:29;;;;;;;18.95;13.63;;;2.50;99.90;;;;;;5002308;28;20038;-78
2023/01/23 03:47:55;;;;;;;23.17;13.98;;;2.50;99.90;;;;;;5002081;28;20524;-78
2023/01/23 03:50:20;;;;;;;16.42;11.75;;;2.50;99.90;;;;;;5001457;28;20810;-78
2023/01/23 03:52:46;;;;;;;20.23;14.00;;;2.50;99.90;;;;;;5005112;28;20030;-78
2023/01/23 03:55:11;;;;;;;19.40;13.93;;;2.50;99.90;;;;;;5011970;28;20062;-79
2023/01/23 03:57:37;;;;;;;19.98;13.00;;;2.50;99.90;;;;;;4995753;28;20096;-80
2023/01/23 04:00:04;;;;;;;23.60;13.90;;;2.50;99.90;;;;;;5015423;28;20117;-79
2023/01/23 04:02:29;;;;;;;18.92;13.40;;;2.50;99.90;;;;;;5017334;28;20041;-79
2023/01/23 04:04:55;;;;;;;22.27;13.10;;;2.50;99.90;;;;;;5015962;28;20074;-79
2023/01/23 04:07:21;;;;;;;20.88;12.68;;;2.50;99.90;;;;;;4987648;28;20120;-79
2023/01/23 04:09:46;;;;;;;20.05;12.43;;;2.50;99.90;;;;;;5018035;28;20088;-79
2023/01/23 04:12:13;;;;;;;20.83;13.65;;;2.40;99.90;;;;;;5013219;28;21472;-80
2023/01/23 04:14:39;;;;;;;18.45;13.48;;;2.50;99.90;;;;;;5016858;28;20118;-80
2023/01/23 04:17:06;;;;;;;19.73;12.73;;;2.40;99.90;;;;;;4996241;28;20069;-80
2023/01/23 04:19:31;;;;;;;17.25;13.32;;;2.40;99.90;;;;;;5014649;28;20072;-80
2023/01/23 04:21:57;;;;;;;20.67;14.00;;;2.40;99.90;;;;;;4991171;28;20039;-79
2023/01/23 04:24:23;;;;;;;20.23;14.77;;;2.40;99.90;;;;;;5007451;28;20389;-78
2023/01/23 04:26:48;;;;;;;21.88;13.82;;;2.40;99.90;;;;;;4997015;28;20057;-78
2023/01/23 04:29:15;;;;;;;19.48;13.30;;;2.50;99.90;;;;;;5007790;28;20034;-78
2023/01/23 04:31:41;;;;;;;23.23;14.82;;;2.50;99.90;;;;;;5005316;28;20050;-78
2023/01/23 04:34:07;;;;;;;22.58;14.00;;;2.40;99.90;;;;;;4988705;28;20050;-78
2023/01/23 04:36:32;;;;;;;21.65;13.32;;;2.40;99.90;;;;;;5002729;28;20129;-78
2023/01/23 04:38:58;;;;;;;20.50;14.10;;;2.40;99.90;;;;;;4983511;28;20101;-78
2023/01/23 04:41:27;;;;;;;19.83;14.15;;;2.40;99.90;;;;;;4987191;28;20129;-79
2023/01/23 04:43:52;;;;;;;16.35;12.57;;;2.40;99.90;;;;;;5003966;28;20180;-79
2023/01/23 04:46:18;;;;;;;19.63;13.52;;;2.40;99.90;;;;;;5002582;28;20187;-78
2023/01/23 04:48:44;;;;;;;16.27;12.43;;;2.40;99.90;;;;;;4999388;28;20582;-78
2023/01/23 04:51:10;;;;;;;20.10;13.50;;;2.40;99.90;;;;;;4978587;28;20049;-78
2023/01/23 04:53:35;;;;;;;18.38;12.85;;;2.40;99.90;;;;;;5003038;28;20038;-78
2023/01/23 04:56:02;;;;;;;20.85;13.88;;;2.40;99.90;;;;;;5006660;28;20113;-79
2023/01/23 04:58:28;;;;;;;22.00;13.68;;;2.40;99.90;;;;;;5003040;28;20164;-78
2023/01/23 05:00:53;;;;;;;21.25;14.15;;;2.40;99.90;;;;;;5000957;28;20132;-78
2023/01/23 05:03:19;;;;;;;21.48;14.77;;;2.40;99.90;;;;;;5002914;28;20476;-77
2023/01/23 05:05:47;;;;;;;18.33;13.85;;;2.40;99.90;;;;;;5002665;28;20080;-78
2023/01/23 05:08:13;;;;;;;24.00;14.65;;;2.40;99.90;;;;;;5003925;28;20188;-77
2023/01/23 05:10:39;;;;;;;23.83;15.30;;;2.40;99.90;;;;;;5002470;28;20513;-77
2023/01/23 05:13:05;;;;;;;20.15;14.45;;;2.40;99.90;;;;;;4999090;28;20034;-78
2023/01/23 05:15:31;;;;;;;21.05;15.43;;;2.40;99.90;;;;;;5002019;28;20545;-78
2023/01/23 05:17:56;;;;;;;23.70;14.82;;;2.40;99.90;;;;;;5004778;28;20053;-79
2023/01/23 05:20:25;;;;;;;21.30;14.88;;;2.40;99.90;;;;;;5004034;28;20630;-79
2023/01/23 05:22:51;;;;;;;21.50;14.45;;;2.40;99.90;;;;;;5007418;28;20504;-79
2023/01/23 05:25:25;;;;;;;22.23;15.20;;;2.40;99.90;;;;;;5013291;28;20046;-79
2023/01/23 05:27:51;;;;;;;19.00;14.88;;;2.40;99.90;;;;;;5012274;28;20065;-79
2023/01/23 05:30:18;;;;;;;19.75;14.63;;;2.40;99.90;;;;;;5008195;28;20430;-79
2023/01/23 05:32:44;;;;;;;19.60;15.48;;;2.40;99.90;;;;;;5008922;28;20063;-79
2023/01/23 05:35:10;;;;;;;21.40;13.88;;;2.30;99.90;;;;;;5008521;28;20052;-79
2023/01/23 05:37:36;;;;;;;20.13;15.13;;;2.40;99.90;;;;;;4990802;28;20038;-79
2023/01/23 05:40:03;;;;;;;23.02;15.20;;;2.40;99.90;;;;;;5005134;28;20736;-79
2023/01/23 05:42:28;;;;;;;17.90;12.93;;;2.40;99.90;;;;;;5005038;28;20034;-79
2023/01/23 05:44:54;;;;;;;25.17;15.60;;;2.40;99.90;;;;;;5004181;28;20041;-79
2023/01/23 05:47:19;;;;;;;22.23;13.18;;;2.40;99.90;;;;;;4983709;28;20054;-80
2023/01/23 05:49:45;;;;;;;21.08;14.65;;;2.40;99.90;;;;;;5005113;28;20074;-81
2023/01/23 05:52:11;;;;;;;20.13;14.93;;;2.40;99.90;;;;;;5005427;28;20463;-81
2023/01/23 05:54:37;;;;;;;20.20;13.77;;;2.40;99.90;;;;;;5002015;28;20052;-78
2023/01/23 05:57:03;;;;;;;19.15;14.50;;;2.40;99.90;;;;;;4984421;28;20037;-79
2023/01/23 05:59:31;;;;;;;20.98;14.43;;;2.40;99.90;;;;;;5005399;28;20049;-82
2023/01/23 06:01:57;;;;;;;22.38;14.63;;;2.40;99.90;;;;;;5003147;28;20073;-79
2023/01/23 06:04:24;;;;;;;18.05;15.30;;;2.30;99.90;;;;;;5004194;28;20042;-78
2023/01/23 06:06:50;;;;;;;22.33;15.40;;;2.30;99.90;;;;;;5007607;28;20119;-79
2023/01/23 06:09:16;;;;;;;19.80;15.43;;;2.30;99.90;;;;;;5003643;28;20054;-79
2023/01/23 06:11:41;;;;;;;24.60;16.00;;;2.40;99.90;;;;;;5007458;28;20676;-79
2023/01/23 06:14:07;;;;;;;20.27;14.05;;;2.30;99.90;;;;;;4992624;28;20484;-81
2023/01/23 06:16:33;;;;;;;19.08;13.50;;;2.40;99.90;;;;;;5008691;28;20092;-81
2023/01/23 06:18:58;;;;;;;19.65;13.15;;;2.30;99.90;;;;;;5011314;28;20065;-79
2023/01/23 06:21:24;;;;;;;20.15;15.05;;;2.30;99.90;;;;;;4973746;28;20057;-79
2023/01/23 06:23:49;;;;;;;21.83;13.95;;;2.30;99.90;;;;;;5005978;28;20041;-78
2023/01/23 06:26:15;;;;;;;21.35;15.73;;;2.40;99.90;;;;;;5010955;28;20041;-80
2023/01/23 06:28:41;;;;;;;22.63;15.68;;;2.30;99.90;;;;;;4998088;28;20045;-81
2023/01/23 06:31:09;;;;;;;20.33;14.85;;;2.30;99.90;;;;;;4993829;28;20377;-79
2023/01/23 06:33:35;;;;;;;22.17;16.08;;;2.30;99.90;;;;;;5010194;28;20050;-79
2023/01/23 06:36:03;;;;;;;25.77;16.15;;;2.30;99.90;;;;;;4991307;28;20049;-79
2023/01/23 06:38:28;;;;;;;18.58;15.35;;;2.30;99.90;;;;;;4993341;28;20102;-79
2023/01/23 06:40:54;;;;;;;20.58;15.77;;;2.30;99.90;;;;;;5010071;28;20128;-80
2023/01/23 06:43:21;;;;;;;20.85;15.35;;;2.30;99.90;;;;;;5012142;28;20038;-81
2023/01/23 06:45:47;;;;;;;18.40;14.07;;;2.30;99.90;;;;;;5017539;28;20056;-81
2023/01/23 06:48:13;;;;;;;21.17;13.70;;;2.30;99.90;;;;;;5012403;28;20062;-79
2023/01/23 06:50:39;;;;;;;22.33;15.07;;;2.30;99.90;;;;;;5006332;28;20504;-78
2023/01/23 06:53:05;;;;;;;20.27;15.35;;;2.40;99.90;;;;;;5004863;28;20073;-79
2023/01/23 06:55:32;;;;;;;20.95;14.95;;;2.40;99.90;;;;;;5001180;28;20081;-79
2023/01/23 06:57:57;;;;;;;21.83;15.27;;;2.30;99.90;;;;;;5000069;28;20463;-79
2023/01/23 07:00:23;;;;;;;18.60;14.60;;;2.30;99.90;;;;;;4999960;28;20069;-80
2023/01/23 07:02:51;;;;;;;19.17;14.50;;;2.40;99.90;;;;;;5000790;28;20049;-80
2023/01/23 07:05:16;;;;;;;20.48;15.65;;;2.40;99.90;;;;;;4999008;28;20192;-80
2023/01/23 07:07:42;;;;;;;21.92;15.02;;;2.40;99.90;;;;;;5000189;28;20042;-80
2023/01/23 07:10:08;;;;;;;17.42;12.88;;;2.40;99.90;;;;;;4999283;28;20034;-80
2023/01/23 07:12:34;;;;;;;20.63;15.65;;;2.30;99.90;;;;;;5001081;28;20034;-80
2023/01/23 07:15:00;;;;;;;18.45;15.43;;;2.30;99.90;;;;;;5008370;28;20686;-80
2023/01/23 07:17:26;;;;;;;19.35;14.77;;;2.40;99.90;;;;;;5009022;28;20044;-79
2023/01/23 07:19:51;;;;;;;22.00;15.02;;;2.40;99.90;;;;;;5007326;28;20771;-79
2023/01/23 07:22:18;;;;;;;19.88;15.32;;;2.30;99.90;;;;;;5015467;28;20128;-80
2023/01/23 07:24:44;;;;;;;18.48;13.57;;;2.40;99.90;;;;;;5020402;28;20053;-81
2023/01/23 07:27:09;;;;;;;18.35;15.48;;;2.40;99.90;;;;;;5000391;28;20046;-80
2023/01/23 07:29:35;;;;;;;23.95;17.17;;;2.30;99.90;;;;;;5012560;28;20352;-80
2023/01/23 07:32:01;;;;;;;24.70;16.65;;;2.40;99.90;;;;;;4992391;28;20054;-80
2023/01/23 07:34:27;;;;;;;21.55;14.80;;;2.40;99.90;;;;;;4992594;28;20050;-80
2023/01/23 07:36:52;;;;;;;26.50;15.32;;;2.30;99.90;;;;;;5008719;28;20827;-80
2023/01/23 07:39:18;;;;;;;21.05;15.05;;;2.30;99.90;;;;;;5005141;28;20049;-79
2023/01/23 07:41:43;;;;;;;23.63;14.90;;;2.40;99.90;;;;;;5003676;28;20038;-79
2023/01/23 07:44:16;;;;;;;22.75;14.95;;;2.40;99.90;;;;;;5004580;28;20041;-79
2023/01/23 07:46:42;;;;;;;19.80;15.20;;;2.40;99.90;;;;;;4989027;28;20397;-78
2023/01/23 07:49:08;;;;;;;19.52;14.57;;;2.40;99.90;;;;;;5004263;28;20038;-79
2023/01/23 07:51:34;;;;;;;20.42;14.45;;;2.40;99.90;;;;;;4989245;28;20044;-81
2023/01/23 07:54:00;;;;;;;19.27;14.13;;;2.40;99.90;;;;;;5016285;28;20046;-82
2023/01/23 07:56:26;;;;;;;24.45;15.73;;;2.40;99.90;;;;;;4998653;28;20037;-81
2023/01/23 07:58:51;;;;;;;20.42;14.32;;;2.40;99.90;;;;;;4980231;28;20370;-82
2023/01/23 08:01:20;;;;;;;21.08;15.40;;;2.40;99.90;;;;;;4999900;28;20034;-81
2023/01/23 08:03:46;;;;;;;18.45;14.77;;;;;;;;;;4984353;28;20378;-80
2023/01/23 08:06:13;;;;;;;21.88;15.75;;;2.40;99.90;;;;;;5022101;28;20042;-80
2023/01/23 08:08:38;;;;;;;20.52;15.75;;;2.40;99.90;;;;;;4987050;28;20131;-80
2023/01/23 08:11:06;;;;;;;20.27;15.40;;;2.40;99.90;;;;;;5007449;28;20149;-76
2023/01/23 08:13:32;;;;;;;23.42;15.73;;;2.50;99.90;;;;;;4993041;28;20193;-76
2023/01/23 08:15:58;;;;;;;23.58;15.20;;;2.50;99.90;;;;;;4975455;28;20144;-76
2023/01/23 08:18:24;;;;;;;23.60;15.35;;;2.50;99.90;;;;;;5009518;28;20034;-75
2023/01/23 08:20:58;;;;;;;16.48;13.35;;;2.50;99.90;;;;;;5007640;28;20539;-76
2023/01/23 08:23:29;;;;;;;17.75;14.35;;;2.50;99.90;;;;;;5006297;28;20045;-76
2023/01/23 08:25:59;;;;;;;15.45;13.55;;;2.50;99.90;;;;;;4999750;28;20048;-77
2023/01/23 08:28:26;;;;;;;18.90;15.02;;;2.50;99.90;;;;;;4983000;28;20515;-78
2023/01/23 08:30:52;;;;;;;18.95;14.63;;;2.50;99.90;;;;;;5006226;28;20081;-77
2023/01/23 08:33:19;;;;;;;21.70;14.95;;;2.50;99.90;;;;;;4984594;28;20063;-76
2023/01/23 08:35:52;;;;;;;19.42;14.50;;;2.60;99.90;;;;;;5006344;28;20050;-76
2023/01/23 08:38:18;;;;;;;19.00;15.15;;;2.60;99.90;;;;;;5005672;28;20053;-76
2023/01/23 08:40:45;;;;;;;19.65;14.27;;;2.60;99.90;;;;;;4990085;28;20045;-76
2023/01/23 08:43:12;;;;;;;16.80;13.40;;;2.60;99.90;;;;;;5002964;28;20038;-75
2023/01/23 08:45:39;;;;;;;20.48;14.95;;;2.60;99.90;;;;;;5005644;28;20047;-78
2023/01/23 08:48:08;;;;;;;14.95;12.63;;;2.60;99.90;;;;;;4998306;28;20037;-77
2023/01/23 08:50:34;;;;;;;18.98;14.15;;;2.70;99.90;;;;;;4978361;28;20120;-77
2023/01/23 08:53:00;;;;;;;18.02;13.25;;;2.70;99.90;;;;;;4993387;28;20133;-77
2023/01/23 08:55:27;;;;;;;19.23;13.82;;;2.70;99.90;;;;;;5008862;28;20057;-77
2023/01/23 08:57:53;;;;;;;15.57;13.07;;;2.70;99.90;;;;;;5004748;28;20042;-77
2023/01/23 09:00:19;;;;;;;20.38;14.00;;;2.70;99.90;;;;;;5008023;28;20083;-80
2023/01/23 09:02:45;;;;;;;16.58;13.32;;;2.70;99.90;;;;;;4988479;28;20049;-78
2023/01/23 09:05:11;;;;;;;19.45;11.90;;;2.70;99.90;;;;;;4995373;28;20104;-78
2023/01/23 09:07:36;;;;;;;16.35;12.88;;;2.70;99.90;;;;;;5007941;28;20065;-78
2023/01/23 09:10:04;;;;;;;20.50;14.80;;;2.80;99.90;;;;;;5006052;28;20038;-78
2023/01/23 09:12:31;;;;;;;19.67;13.77;;;2.70;99.90;;;;;;4989331;28;20799;-78
2023/01/23 09:14:57;;;;;;;18.02;13.90;;;;;;;;;;5002559;28;20058;-78
2023/01/23 09:17:23;;;;;;;19.67;13.43;;;2.80;99.90;;;;;;5001814;28;20045;-78
2023/01/23 09:19:48;;;;;;;16.27;12.52;;;2.80;99.90;;;;;;5001992;28;20388;-78
2023/01/23 09:22:15;;;;;;;19.67;12.77;;;2.80;99.90;;;;;;5003626;28;20117;-78
2023/01/23 09:24:41;;;;;;;17.37;14.20;;;2.90;99.90;;;;;;5013023;28;20661;-78
2023/01/23 09:27:08;;;;;;;20.60;14.23;;;2.90;99.90;;;;;;4992026;28;20037;-78
2023/01/23 09:29:34;;;;;;;17.13;13.55;;;2.90;99.90;;;;;;5009117;28;20045;-78
2023/01/23 09:32:00;;;;;;;17.33;13.57;;;2.90;99.90;;;;;;5004837;28;20058;-78
2023/01/23 09:34:27;;;;;;;15.63;12.88;;;2.90;99.90;;;;;;5011154;28;20042;-78
2023/01/23 09:36:52;;;;;;;15.40;11.02;;;3.00;99.90;;;;;;4996092;28;20120;-78
2023/01/23 09:39:19;;;;;;;19.38;13.48;;;;;;;;;;5012197;28;20501;-78
2023/01/23 09:41:47;;;;;;;18.00;13.80;;;3.00;99.90;;;;;;4995190;28;20038;-78
2023/01/23 09:44:33;;;;;;;17.23;13.27;;;3.00;99.90;;;;;;5007708;28;20050;-78
2023/01/23 09:47:06;;;;;;;17.23;11.90;;;3.00;99.90;;;;;;5009292;28;20104;-78
2023/01/23 09:49:59;;;;;;;16.83;13.52;;;3.10;99.90;;;;;;4994755;28;20132;-78
2023/01/23 09:52:33;;;;;;;18.67;13.32;;;3.10;99.90;;;;;;5012786;28;20045;-78
2023/01/23 09:55:17;;;;;;;15.48;13.57;;;3.20;99.90;;;;;;5014231;28;20117;-78
2023/01/23 09:57:53;;;;;;;17.80;12.55;;;3.10;99.90;;;;;;4994859;28;20069;-78
2023/01/23 10:00:27;;;;;;;16.92;13.60;;;3.20;99.90;;;;;;5012817;28;20048;-78
2023/01/23 10:02:54;;;;;;;16.52;12.00;;;3.20;99.90;;;;;;5010621;28;20051;-78
2023/01/23 10:05:56;;;;;;;17.63;12.02;;;3.30;99.90;;;;;;5010977;28;20056;-78
2023/01/23 10:08:48;;;;;;;13.70;11.85;;;3.20;99.90;;;;;;5010781;28;20061;-79
2023/01/23 10:11:28;;;;;;;19.50;12.50;;;3.20;99.90;;;;;;5006913;28;20056;-79
2023/01/23 10:14:15;;;;;;;16.05;13.43;;;3.30;99.90;;;;;;4995197;28;20336;-78
2023/01/23 10:17:01;;;;;;;15.82;12.60;;;3.20;99.90;;;;;;5012991;28;20152;-78
2023/01/23 10:19:45;;;;;;;18.58;11.90;;;3.30;99.90;;;;;;4982942;28;20058;-79
2023/01/23 10:22:30;;;;;;;14.68;10.68;;;3.30;99.90;;;;;;4999819;28;20096;-78
2023/01/23 10:24:57;;;;;;;17.60;13.27;;;3.30;99.90;;;;;;5008406;28;20041;-78
2023/01/23 10:27:47;;;;;;;16.33;12.48;;;3.40;99.90;;;;;;5006022;28;20037;-78
2023/01/23 10:30:27;;;;;;;15.57;12.75;;;3.40;99.90;;;;;;4975010;28;20434;-78
2023/01/23 10:33:00;;;;;;;14.73;11.20;;;3.50;99.90;;;;;;4985577;28;20057;-78
2023/01/23 10:35:58;;;;;;;15.77;12.55;;;3.60;99.90;;;;;;5011137;28;20106;-78
2023/01/23 10:38:53;;;;;;;16.40;11.88;;;3.60;99.90;;;;;;4996371;28;20111;-79
2023/01/23 10:41:20;;;;;;;13.45;11.88;;;3.70;99.90;;;;;;5011018;28;20120;-78
2023/01/23 10:43:48;;;;;;;12.27;10.95;;;3.80;99.90;;;;;;5011503;28;20469;-78
2023/01/23 10:46:38;;;;;;;15.25;11.40;;;3.80;99.90;;;;;;5007226;28;20492;-78
2023/01/23 10:49:04;;;;;;;13.05;9.07;;;3.80;99.90;;;;;;5007423;28;20381;-78
2023/01/23 10:51:34;;;;;;;12.23;9.50;;;3.80;99.90;;;;;;4995261;28;20060;-79
2023/01/23 10:54:11;;;;;;;14.13;10.73;;;3.90;99.90;;;;;;4998128;28;20060;-79
2023/01/23 10:56:57;;;;;;;14.55;10.55;;;3.90;99.90;;;;;;4996175;28;20050;-79
2023/01/23 10:59:37;;;;;;;15.38;10.75;;;3.90;99.90;;;;;;5013428;28;20069;-79
2023/01/23 11:02:12;;;;;;;12.60;8.60;;;4.00;99.90;;;;;;5014362;28;20046;-78
2023/01/23 11:04:38;;;;;;;13.60;10.55;;;4.00;99.90;;;;;;4992639;28;20046;-78
2023/01/23 11:07:16;;;;;;;12.27;11.00;;;4.00;99.90;;;;;;5015268;28;20133;-78
2023/01/23 11:09:46;;;;;;;;;;;4.00;99.90;;;;;;5013445;28;20029;-78
2023/01/23 11:12:21;;;;;;;14.13;11.32;;;4.00;99.90;;;;;;5014408;28;19929;-78
2023/01/23 11:14:47;;;;;;;12.98;10.40;;;4.10;99.90;;;;;;4994810;28;20136;-78
2023/01/23 11:17:15;;;;;;;11.90;9.23;;;4.20;99.90;;;;;;5014033;28;20053;-78
2023/01/23 11:19:41;;;;;;;12.18;9.27;;;4.10;99.90;;;;;;5007430;28;20126;-78
2023/01/23 11:22:27;;;;;;;12.27;9.07;;;4.10;99.90;;;;;;5009646;28;20042;-78
2023/01/23 11:24:53;;;;;;;11.55;9.90;;;4.10;99.90;;;;;;5010317;28;20057;-77
2023/01/23 11:27:28;;;;;;;16.85;10.38;;;4.20;99.90;;;;;;4995725;28;20049;-78
2023/01/23 11:29:54;;;;;;;12.35;10.38;;;4.20;99.90;;;;;;4980238;28;20042;-78
2023/01/23 11:32:20;;;;;;;11.32;8.65;;;4.10;99.90;;;;;;4993893;28;20060;-78
2023/01/23 11:34:50;;;;;;;13.25;8.90;;;4.20;99.90;;;;;;5005512;28;20136;-78
2023/01/23 11:37:18;;;;;;;11.18;9.93;;;4.10;99.90;;;;;;5010547;28;20048;-79
2023/01/23 11:39:58;;;;;;;11.52;9.00;;;4.10;99.90;;;;;;4997742;28;20093;-78
2023/01/23 11:42:26;;;;;;;13.07;10.52;;;4.10;99.90;;;;;;5013007;28;20046;-78
2023/01/23 11:44:52;;;;;;;11.98;10.20;;;4.10;99.90;;;;;;4997691;28;20067;-78
2023/01/23 11:47:31;;;;;;;14.70;10.93;;;4.10;99.90;;;;;;5008956;28;20064;-78
2023/01/23 11:50:18;;;;;;;18.30;12.20;;;4.10;99.90;;;;;;5015575;28;20104;-79
2023/01/23 11:52:58;;;;;;;12.48;10.23;;;4.10;99.90;;;;;;4994140;28;20042;-78
2023/01/23 11:56:04;;;;;;;14.30;10.85;;;4.10;99.90;;;;;;5004589;28;20073;-78
2023/01/23 11:58:36;;;;;;;12.32;9.88;;;4.20;99.90;;;;;;4996938;28;20064;-78
2023/01/23 12:01:06;;;;;;;12.63;10.50;;;4.20;99.90;;;;;;5007502;28;20426;-78
2023/01/23 12:03:40;;;;;;;11.75;10.48;;;4.30;99.90;;;;;;4994999;28;20057;-78
2023/01/23 12:06:47;;;;;;;12.98;10.32;;;4.30;99.90;;;;;;5013659;28;20050;-78
2023/01/23 12:09:17;;;;;;;13.13;11.05;;;4.30;99.90;;;;;;4986222;28;20054;-78
2023/01/23 12:12:07;;;;;;;13.68;11.60;;;4.30;99.90;;;;;;5013130;28;20097;-79
2023/01/23 12:14:59;;;;;;;12.75;11.45;;;4.40;99.90;;;;;;5009999;28;20038;-79
2023/01/23 12:17:48;;;;;;;13.25;11.10;;;4.50;99.90;;;;;;4979097;28;20243;-79
2023/01/23 12:20:52;;;;;;;16.27;11.40;;;4.40;99.90;;;;;;4985690;28;20045;-79
2023/01/23 12:23:30;;;;;;;11.68;9.55;;;4.30;99.90;;;;;;5005957;28;20053;-78
2023/01/23 12:26:21;;;;;;;14.30;10.93;;;4.40;99.90;;;;;;4978313;28;20170;-78
2023/01/23 12:29:04;;;;;;;14.65;11.02;;;4.40;99.90;;;;;;5011638;28;20088;-78
2023/01/23 12:31:30;;;;;;;13.07;11.43;;;4.40;99.90;;;;;;4995227;28;20093;-78
2023/01/23 12:34:08;;;;;;;15.45;12.35;;;4.40;99.90;;;;;;4991583;28;20046;-78
2023/01/23 12:36:55;;;;;;;10.48;9.07;;;4.40;99.90;;;;;;4999874;28;20047;-78
2023/01/23 12:39:30;;;;;;;14.48;10.85;;;4.30;99.90;;;;;;5008929;28;20372;-78
2023/01/23 12:42:02;;;;;;;13.45;11.93;;;4.30;99.90;;;;;;5011941;28;20049;-78
2023/01/23 12:45:02;;;;;;;14.63;12.38;;;4.30;99.90;;;;;;4984903;28;20093;-78
2023/01/23 12:47:40;;;;;;;13.85;11.52;;;4.30;99.90;;;;;;5008215;28;20046;-78
2023/01/23 12:50:22;;;;;;;14.13;12.50;;;4.40;99.90;;;;;;4999769;28;20057;-78
2023/01/23 12:52:58;;;;;;;14.20;12.07;;;4.30;99.90;;;;;;4995712;28;20398;-79
2023/01/23 12:55:32;;;;;;;14.43;11.48;;;4.30;99.90;;;;;;4993566;28;20057;-78
2023/01/23 12:57:59;;;;;;;16.17;13.30;;;4.30;99.90;;;;;;5012725;28;20050;-78